Time;durP1;ratioP1;P1;durP2;ratioP2;P2;SDS_P1;SDS_P2;PMS_P1;PMS_P2;Temp;Humidity;BMP_temperature;BMP_pressure;BME280_temperature;BME280_humidity;BME280_pressure;Samples;Min_cycle;Max_cycle;Signal;HPM_P1;HPM_P2
2022/06/27 00:00:09;;;;;;;0.50;0.50;;;20.90;65.00;;;21.40;49.47;94861.75;5065771;28;20242;-79
2022/06/27 00:02:40;;;;;;;0.50;0.50;;;20.80;65.60;;;21.35;49.17;94862.53;5052846;28;20191;-78
2022/06/27 00:05:10;;;;;;;0.40;0.40;;;20.70;65.20;;;21.31;49.43;94864.09;5071666;28;20230;-79
2022/06/27 00:07:39;;;;;;;0.50;0.50;;;20.70;65.30;;;21.25;49.49;94857.94;5031495;28;20211;-79
2022/06/27 00:10:08;;;;;;;0.60;0.60;;;20.70;65.30;;;21.22;49.65;94860.34;5063986;28;20329;-78
2022/06/27 00:12:37;;;;;;;0.50;0.50;;;20.70;65.50;;;21.18;49.77;94862.72;5038835;28;20197;-78
2022/06/27 00:15:07;;;;;;;0.50;0.50;;;20.70;65.50;;;21.14;49.70;94866.16;5038203;28;20227;-78
2022/06/27 00:17:34;;;;;;;0.43;0.43;;;20.60;65.60;;;21.09;49.79;94861.59;5061266;28;20691;-78
2022/06/27 00:20:03;;;;;;;0.40;0.40;;;20.50;65.50;;;21.07;49.74;94869.06;5069705;28;20250;-79
2022/06/27 00:22:30;;;;;;;0.45;0.45;;;20.50;65.70;;;21.03;49.69;94867.97;5054622;28;20237;-79
2022/06/27 00:24:57;;;;;;;0.40;0.40;;;20.50;65.70;;;20.95;49.98;94855.94;5069865;28;20222;-79
2022/06/27 00:27:24;;;;;;;0.40;0.40;;;20.50;65.90;;;20.96;49.77;94865.53;5070357;28;20203;-79
2022/06/27 00:29:51;;;;;;;0.50;0.50;;;20.40;65.80;;;20.91;50.69;94866.31;5052332;28;20227;-78
2022/06/27 00:32:19;;;;;;;0.40;0.40;;;20.40;65.90;;;20.89;50.29;94867.63;5062851;28;20252;-78
2022/06/27 00:34:46;;;;;;;0.40;0.40;;;20.40;66.10;;;20.86;50.26;94876.13;5047883;28;20234;-78
2022/06/27 00:37:13;;;;;;;0.40;0.40;;;20.30;66.10;;;20.83;50.73;94877.47;5070753;28;20198;-79
2022/06/27 00:39:40;;;;;;;0.40;0.40;;;20.30;66.30;;;20.79;50.37;94871.84;5071419;28;20228;-78
2022/06/27 00:42:07;;;;;;;0.43;0.43;;;20.20;66.20;;;20.79;50.21;94873.72;5031049;28;20210;-79
2022/06/27 00:44:37;;;;;;;0.40;0.40;;;20.20;66.30;;;20.77;50.31;94870.50;5034468;28;20223;-79
2022/06/27 00:47:07;;;;;;;0.50;0.50;;;20.20;66.40;;;20.72;50.57;94873.13;5049541;28;20286;-78
2022/06/27 00:49:35;;;;;;;0.50;0.50;;;20.20;66.50;;;20.73;50.82;94880.84;5034133;28;20590;-78
2022/06/27 00:52:09;;;;;;;0.40;0.40;;;20.10;66.60;;;20.70;51.14;94878.69;5033943;28;20203;-78
2022/06/27 00:54:40;;;;;;;0.40;0.40;;;20.10;66.60;;;20.68;50.71;94875.47;5046759;28;20221;-78
2022/06/27 00:57:08;;;;;;;0.47;0.47;;;20.10;66.60;;;20.67;50.47;94873.84;5054569;28;20234;-79
2022/06/27 00:59:36;;;;;;;0.40;0.40;;;20.20;66.70;;;20.64;51.17;94882.34;5053750;28;20572;-79
2022/06/27 01:02:04;;;;;;;0.50;0.50;;;20.10;66.70;;;20.63;50.91;94878.09;5054835;28;20286;-78
2022/06/27 01:04:34;;;;;;;0.47;0.47;;;20.10;66.60;;;20.60;51.20;94874.09;5033877;28;20298;-79
2022/06/27 01:07:02;;;;;;;0.50;0.50;;;20.00;66.70;;;20.57;50.87;94876.47;5051871;28;20179;-79
2022/06/27 01:09:36;;;;;;;0.50;0.50;;;20.00;66.80;;;20.56;50.75;94875.66;5085095;28;20229;-79
2022/06/27 01:12:04;;;;;;;0.40;0.40;;;20.00;66.90;;;20.53;51.31;94872.69;5057608;28;20202;-78
2022/06/27 01:14:32;;;;;;;0.50;0.50;;;20.00;67.00;;;20.54;51.07;94876.97;5086006;28;20240;-79
2022/06/27 01:17:00;;;;;;;0.50;0.50;;;20.00;67.10;;;20.51;51.21;94869.47;5052904;28;20618;-79
2022/06/27 01:19:27;;;;;;;0.40;0.40;;;19.90;67.10;;;20.51;51.74;94870.28;5033161;28;20252;-78
2022/06/27 01:21:57;;;;;;;0.50;0.50;;;20.00;67.20;;;20.51;51.55;94875.63;5060299;28;20248;-79
2022/06/27 01:24:27;;;;;;;0.50;0.50;;;19.90;67.20;;;20.50;51.82;94882.00;5034939;28;20209;-78
2022/06/27 01:26:57;;;;;;;0.40;0.40;;;19.90;67.50;;;20.44;51.24;94875.81;5054074;28;20194;-78
2022/06/27 01:29:24;;;;;;;0.40;0.40;;;19.90;67.20;;;20.46;51.29;94876.38;5069655;28;20226;-77
2022/06/27 01:31:51;;;;;;;0.40;0.40;;;19.90;67.30;;;20.43;51.69;94876.09;5049941;28;20196;-79
2022/06/27 01:34:20;;;;;;;0.50;0.50;;;19.90;67.30;;;20.43;51.82;94876.09;5049956;28;20195;-78
2022/06/27 01:36:49;;;;;;;0.47;0.47;;;20.00;67.40;;;20.40;51.96;94869.41;5048685;28;20199;-78
2022/06/27 01:39:19;;;;;;;0.55;0.55;;;19.90;67.50;;;20.40;51.62;94868.63;5061879;28;20622;-78
2022/06/27 01:41:59;;;;;;;0.50;0.50;;;19.80;67.60;;;20.37;52.01;94866.44;5038952;28;20222;-78
2022/06/27 01:44:30;;;;;;;0.60;0.60;;;19.80;67.60;;;20.36;51.97;94867.50;5059811;28;20222;-78
2022/06/27 01:46:59;;;;;;;0.43;0.43;;;19.80;67.60;;;;;;5059482;28;20211;-78
2022/06/27 01:49:29;;;;;;;0.50;0.50;;;19.80;67.80;;;20.32;52.22;94851.22;5067856;28;20573;-78
2022/06/27 01:51:58;;;;;;;0.40;0.40;;;19.90;67.80;;;20.32;52.21;94845.91;5069046;28;20234;-79
2022/06/27 01:54:25;;;;;;;0.50;0.50;;;19.80;67.70;;;20.28;51.58;94840.28;5069838;28;20270;-77
2022/06/27 01:56:53;;;;;;;0.47;0.47;;;19.70;67.70;;;20.30;51.98;94842.69;5035497;28;20547;-79
2022/06/27 01:59:28;;;;;;;0.47;0.47;;;19.80;67.70;;;20.28;51.96;94850.94;5066387;28;20219;-78
2022/06/27 02:02:01;;;;;;;0.50;0.50;;;19.70;68.30;;;20.26;51.66;94850.41;5049537;28;20199;-78
2022/06/27 02:04:30;;;;;;;0.50;0.50;;;19.70;67.70;;;20.24;52.03;94843.72;5037864;28;20248;-77
2022/06/27 02:07:00;;;;;;;0.47;0.47;;;19.70;67.80;;;20.23;52.20;94839.44;5034234;28;20674;-78
2022/06/27 02:09:27;;;;;;;0.40;0.40;;;19.70;67.90;;;20.21;52.48;94839.69;5048526;28;20207;-78
2022/06/27 02:11:56;;;;;;;0.40;0.40;;;19.70;68.00;;;20.19;51.98;94833.81;5054205;28;20217;-79
2022/06/27 02:14:30;;;;;;;0.50;0.50;;;19.70;68.00;;;20.17;52.34;94832.47;5037231;28;20206;-78
2022/06/27 02:16:58;;;;;;;0.40;0.40;;;19.60;68.00;;;20.17;52.36;94835.16;5039424;28;20205;-79
2022/06/27 02:19:26;;;;;;;0.50;0.50;;;19.60;68.10;;;20.13;52.48;94838.31;5057173;28;20288;-78
2022/06/27 02:21:53;;;;;;;0.50;0.50;;;19.60;68.20;;;20.10;52.20;94841.47;5068556;28;20208;-79
2022/06/27 02:24:20;;;;;;;0.50;0.50;;;19.60;68.10;;;20.10;52.53;94840.66;5048271;28;20206;-78
2022/06/27 02:26:50;;;;;;;0.50;0.50;;;19.60;68.20;;;20.07;52.79;94841.19;5057581;28;20249;-78
2022/06/27 02:29:17;;;;;;;0.60;0.60;;;19.60;68.60;;;20.05;52.66;94835.31;5057050;28;20290;-78
2022/06/27 02:31:50;;;;;;;0.50;0.50;;;19.50;68.30;;;20.03;52.80;94835.56;5054979;28;20568;-78
2022/06/27 02:34:18;;;;;;;0.50;0.50;;;19.60;68.90;;;20.02;52.94;94828.63;5070010;28;20214;-78
2022/06/27 02:36:49;;;;;;;0.40;0.40;;;19.60;68.50;;;20.00;52.39;94836.84;5043741;28;20541;-78
2022/06/27 02:39:23;;;;;;;0.50;0.50;;;19.40;68.50;;;19.99;52.90;94842.44;5042599;28;20233;-78
2022/06/27 02:41:55;;;;;;;0.50;0.50;;;19.40;68.60;;;19.95;53.26;94836.03;5052147;28;20648;-78
2022/06/27 02:44:26;;;;;;;0.50;0.50;;;19.50;68.90;;;19.92;53.00;94840.00;5071366;28;20656;-78
2022/06/27 02:46:54;;;;;;;0.50;0.50;;;19.40;68.80;;;19.92;52.95;94845.31;5055796;28;20199;-79
2022/06/27 02:49:22;;;;;;;0.45;0.45;;;19.40;68.70;;;19.91;53.17;94849.03;5045202;28;20191;-78
2022/06/27 02:52:18;;;;;;;0.47;0.47;;;19.40;68.70;;;19.89;53.20;94853.00;5046534;28;20641;-78
2022/06/27 02:55:19;;;;;;;0.50;0.50;;;19.40;68.80;;;19.82;53.63;94848.66;5074923;28;20264;-78
2022/06/27 02:58:23;;;;;;;0.50;0.50;;;19.30;69.40;;;19.79;53.06;94853.69;5047080;28;20230;-78
2022/06/27 03:00:54;;;;;;;0.50;0.50;;;19.40;69.20;;;19.79;52.98;94851.00;5032140;28;20238;-79
2022/06/27 03:03:24;;;;;;;0.50;0.50;;;19.30;69.00;;;19.77;53.23;94851.25;5033374;28;20210;-79
2022/06/27 03:06:06;;;;;;;0.57;0.57;;;19.30;69.10;;;19.75;53.25;94844.56;5064963;28;20333;-79
2022/06/27 03:08:42;;;;;;;0.50;0.50;;;19.30;69.60;;;19.74;53.76;94843.78;5069879;28;20201;-78
2022/06/27 03:11:16;;;;;;;0.50;0.50;;;19.30;69.50;;;19.74;53.46;94849.09;5030897;28;20219;-77
2022/06/27 03:13:45;;;;;;;0.50;0.50;;;19.30;69.20;;;19.73;53.71;94844.81;5079425;28;20270;-79
2022/06/27 03:16:14;;;;;;;0.50;0.50;;;19.20;69.10;;;19.74;53.89;94846.44;5052709;28;20213;-78
2022/06/27 03:18:42;;;;;;;0.50;0.50;;;19.20;69.30;;;19.74;53.91;94846.44;5054166;28;20203;-78
2022/06/27 03:21:28;;;;;;;0.50;0.50;;;19.20;69.30;;;19.72;53.30;94829.91;5059776;28;20227;-78
2022/06/27 03:24:00;;;;;;;0.50;0.50;;;19.20;69.20;;;19.74;53.90;94827.81;5036216;28;20310;-78
2022/06/27 03:26:28;;;;;;;0.50;0.50;;;19.20;69.30;;;19.76;53.67;94830.22;5043213;28;20290;-78
2022/06/27 03:28:57;;;;;;;0.50;0.50;;;19.20;69.40;;;19.77;53.98;94826.50;5061865;28;20199;-78
2022/06/27 03:31:26;;;;;;;0.43;0.43;;;19.30;69.60;;;19.77;54.19;94824.63;5066636;28;20225;-78
2022/06/27 03:33:54;;;;;;;0.40;0.40;;;19.40;69.60;;;19.80;53.88;94823.34;5050283;28;20195;-79
2022/06/27 03:36:27;;;;;;;0.50;0.50;;;19.30;70.50;;;19.82;54.30;94823.88;5063380;28;20313;-78
2022/06/27 03:38:54;;;;;;;0.43;0.43;;;19.30;69.80;;;19.83;54.26;94820.16;5052744;28;20206;-79
2022/06/27 03:41:23;;;;;;;0.50;0.50;;;19.30;69.90;;;19.85;54.40;94818.09;5035887;28;20223;-79
2022/06/27 03:43:50;;;;;;;0.50;0.50;;;19.40;70.00;;;19.88;54.45;94824.78;5052274;28;20210;-79
2022/06/27 03:46:19;;;;;;;0.50;0.50;;;19.40;70.10;;;19.92;54.25;94829.34;5035078;28;20250;-79
2022/06/27 03:51:53;;;;;;;0.50;0.50;;;19.40;70.10;;;19.99;54.63;94827.28;5050743;28;20685;-79
2022/06/27 03:54:21;;;;;;;0.50;0.50;;;19.50;70.30;;;20.05;54.57;94837.97;5060268;28;20207;-80
2022/06/27 03:56:49;;;;;;;0.50;0.50;;;19.60;70.30;;;20.12;54.69;94843.88;5060392;28;20186;-80
2022/06/27 03:59:17;;;;;;;0.50;0.50;;;19.60;70.40;;;20.19;54.80;94844.47;5036949;28;20230;-80
2022/06/27 04:01:46;;;;;;;0.40;0.40;;;19.70;70.40;;;20.22;54.35;94833.31;5037784;28;20199;-79
2022/06/27 04:04:13;;;;;;;0.50;0.50;;;19.70;70.50;;;20.28;54.48;94824.28;5084943;28;20199;-80
2022/06/27 04:06:42;;;;;;;0.50;0.50;;;19.80;70.60;;;20.37;54.95;94827.28;5068572;28;20378;-79
2022/06/27 04:09:11;;;;;;;0.50;0.50;;;19.90;70.80;;;20.45;54.75;94831.34;5067988;28;20582;-79
2022/06/27 04:11:38;;;;;;;0.50;0.50;;;20.00;70.90;;;20.53;55.29;94833.53;5035588;28;20197;-79
2022/06/27 04:14:10;;;;;;;0.50;0.50;;;20.00;70.90;;;20.58;55.24;94835.41;5069151;28;20210;-80
2022/06/27 04:16:40;;;;;;;0.50;0.50;;;20.10;71.10;;;20.68;55.05;94835.50;5055775;28;20241;-80
2022/06/27 04:19:26;;;;;;;0.40;0.40;;;20.20;71.10;;;20.75;55.22;94837.94;5070365;28;20229;-80
2022/06/27 04:22:14;;;;;;;0.40;0.40;;;20.40;71.20;;;20.84;55.48;94839.06;5071362;28;20210;-80
2022/06/27 04:25:00;;;;;;;0.40;0.40;;;20.30;71.10;;;20.90;55.38;94834.59;5086341;28;20234;-79
2022/06/27 04:27:43;;;;;;;0.40;0.40;;;20.50;71.30;;;20.98;55.36;94838.63;5055745;28;20652;-79
2022/06/27 04:30:16;;;;;;;0.50;0.50;;;20.50;71.20;;;21.09;55.45;94837.59;5054572;28;20682;-79
2022/06/27 04:32:48;;;;;;;0.50;0.50;;;20.60;71.30;;;21.15;55.85;94841.88;5055154;28;20206;-80
2022/06/27 04:35:16;;;;;;;0.43;0.43;;;20.70;71.30;;;21.21;55.28;94834.72;5053124;28;20265;-80
2022/06/27 04:37:43;;;;;;;0.40;0.40;;;20.80;71.30;;;21.29;55.24;94839.56;5059979;28;20559;-80
2022/06/27 04:40:29;;;;;;;0.40;0.40;;;20.80;71.30;;;21.38;55.25;94831.84;5070769;28;20233;-80
2022/06/27 04:42:59;;;;;;;0.45;0.45;;;20.90;71.20;;;21.46;55.34;94839.34;5054294;28;20290;-80
2022/06/27 04:45:27;;;;;;;0.40;0.40;;;21.00;71.30;;;21.49;55.96;94830.00;5053946;28;20257;-79
2022/06/27 04:48:07;;;;;;;0.40;0.40;;;21.10;71.30;;;21.62;55.57;94842.88;5056665;28;20207;-79
2022/06/27 04:50:36;;;;;;;0.40;0.40;;;21.20;71.30;;;21.69;55.98;94835.44;5038370;28;20313;-80
2022/06/27 04:53:04;;;;;;;0.40;0.40;;;21.40;71.50;;;21.77;55.27;94839.44;5070653;28;20206;-80
2022/06/27 04:55:32;;;;;;;0.40;0.40;;;21.30;71.30;;;21.86;55.73;94835.19;5032469;28;20280;-80
2022/06/27 04:57:59;;;;;;;0.40;0.40;;;21.50;71.30;;;21.93;55.28;94842.94;5034362;28;20206;-80
2022/06/27 05:00:27;;;;;;;0.40;0.40;;;21.50;71.10;;;22.01;55.29;94842.41;5034383;28;20237;-79
2022/06/27 05:03:08;;;;;;;0.60;0.60;;;21.60;71.30;;;22.07;55.43;94830.66;5053438;28;21067;-80
2022/06/27 05:05:40;;;;;;;0.40;0.40;;;21.70;71.20;;;22.12;55.44;94834.41;5034528;28;20309;-80
2022/06/27 05:08:07;;;;;;;0.40;0.40;;;21.80;71.20;;;22.18;55.86;94836.00;5052150;28;20709;-80
2022/06/27 05:10:42;;;;;;;0.40;0.40;;;21.90;71.30;;;22.28;55.61;94844.03;5039738;28;20637;-80
2022/06/27 05:13:09;;;;;;;0.40;0.40;;;21.90;71.10;;;22.36;55.70;94848.03;5070108;28;20651;-79
2022/06/27 05:15:37;;;;;;;0.35;0.35;;;22.00;71.20;;;22.45;55.49;94859.00;5053912;28;20216;-79
2022/06/27 05:18:05;;;;;;;0.40;0.40;;;22.10;71.30;;;22.55;55.70;94851.00;5054648;28;20230;-81
2022/06/27 05:20:33;;;;;;;0.38;0.38;;;22.20;71.40;;;22.66;55.77;94857.94;5054340;28;20227;-80
2022/06/27 05:23:00;;;;;;;0.40;0.40;;;22.30;71.40;;;22.80;55.56;94857.38;5037115;28;20203;-80
2022/06/27 05:25:29;;;;;;;0.40;0.40;;;22.40;71.30;;;22.92;55.72;94859.75;5050775;28;20566;-80
2022/06/27 05:27:58;;;;;;;0.40;0.40;;;22.50;71.30;;;23.01;55.51;94860.81;5053013;28;20204;-80
2022/06/27 05:30:27;;;;;;;0.50;0.50;;;22.60;71.20;;;23.16;55.47;94866.13;5063167;28;20223;-80
2022/06/27 05:32:55;;;;;;;0.30;0.30;;;22.80;71.30;;;23.26;55.60;94867.19;5050949;28;20203;-80
2022/06/27 05:35:22;;;;;;;0.40;0.40;;;22.90;71.10;;;23.39;55.58;94871.13;5063085;28;20223;-79
2022/06/27 05:37:50;;;;;;;0.40;0.40;;;23.00;70.90;;;23.49;55.07;94873.78;5053427;28;20286;-80
2022/06/27 05:40:19;;;;;;;0.40;0.40;;;23.10;70.70;;;23.60;55.02;94878.00;5032259;28;20262;-80
2022/06/27 05:42:49;;;;;;;0.40;0.40;;;23.20;70.70;;;23.71;54.97;94870.72;5047855;28;20234;-80
2022/06/27 05:45:17;;;;;;;0.40;0.40;;;23.40;70.60;;;23.83;55.19;94868.50;5046398;28;20446;-80
2022/06/27 05:48:06;;;;;;;0.40;0.40;;;23.50;70.80;;;23.96;54.94;94861.78;5059030;28;20298;-80
2022/06/27 05:50:40;;;;;;;0.40;0.40;;;23.60;70.50;;;24.08;54.92;94866.81;5072082;28;20238;-80
2022/06/27 05:53:08;;;;;;;0.40;0.40;;;23.80;70.50;;;24.20;54.50;94866.44;5072235;28;20194;-81
2022/06/27 05:55:37;;;;;;;0.40;0.40;;;23.80;70.30;;;24.33;54.38;94865.00;5057256;28;20231;-80
2022/06/27 05:58:07;;;;;;;0.30;0.30;;;24.00;70.40;;;24.41;54.62;94861.72;5051310;28;20663;-81
2022/06/27 06:00:34;;;;;;;0.32;0.32;;;24.10;70.20;;;24.55;54.15;94869.13;5041201;28;20234;-81
2022/06/27 06:03:03;;;;;;;0.40;0.40;;;24.20;70.20;;;24.61;54.50;94870.69;5054547;28;20191;-79
2022/06/27 06:05:31;;;;;;;0.60;0.60;;;24.30;70.20;;;24.71;54.11;94873.28;5055744;28;20219;-81
2022/06/27 06:08:04;;;;;;;0.60;0.60;;;24.40;69.80;;;24.79;54.01;94874.53;5056772;28;20297;-81
2022/06/27 06:10:33;;;;;;;0.55;0.55;;;24.50;69.80;;;24.84;54.03;94871.84;5065938;28;20703;-79
2022/06/27 06:13:03;;;;;;;0.47;0.47;;;24.50;69.70;;;24.90;54.19;94868.00;5056923;28;20211;-80
2022/06/27 06:15:32;;;;;;;0.35;0.35;;;24.60;69.80;;;24.95;53.56;94867.16;5056940;28;20749;-81
2022/06/27 06:18:01;;;;;;;0.30;0.30;;;24.60;69.70;;;25.02;53.90;94869.50;5052914;28;20687;-80
2022/06/27 06:20:28;;;;;;;0.30;0.30;;;24.70;69.80;;;25.06;53.88;94865.16;5046408;28;20230;-81
2022/06/27 06:22:56;;;;;;;0.30;0.30;;;24.70;69.50;;;25.09;53.96;94868.06;5048000;28;20296;-81
2022/06/27 06:25:23;;;;;;;0.40;0.40;;;24.80;69.60;;;25.07;53.25;94856.03;5057177;28;20281;-80
2022/06/27 06:27:51;;;;;;;0.30;0.30;;;24.80;69.40;;;25.14;53.77;94859.16;5054853;28;20211;-81
2022/06/27 06:30:19;;;;;;;0.60;0.60;;;24.80;69.30;;;25.16;53.46;94861.56;5054020;28;20223;-81
2022/06/27 06:32:47;;;;;;;0.32;0.32;;;24.90;69.40;;;25.18;53.50;94868.25;5056914;28;20215;-81
2022/06/27 06:35:16;;;;;;;0.30;0.30;;;24.90;69.50;;;25.21;53.57;94872.25;5071396;28;20254;-81
2022/06/27 06:37:44;;;;;;;0.30;0.30;;;24.90;69.40;;;25.25;53.43;94875.97;5061907;28;20787;-81
2022/06/27 06:40:15;;;;;;;0.32;0.32;;;24.90;70.20;;;25.30;53.48;94883.94;5035744;28;20228;-81
2022/06/27 06:42:44;;;;;;;0.40;0.40;;;24.90;69.30;;;25.32;53.67;94871.03;5035591;28;20616;-81
2022/06/27 06:45:40;;;;;;;0.30;0.30;;;25.00;69.40;;;25.38;53.62;94874.50;5028719;28;20349;-79
2022/06/27 06:48:13;;;;;;;0.30;0.30;;;25.10;69.50;;;25.48;53.66;94866.31;5037250;28;20443;-81
2022/06/27 06:50:42;;;;;;;0.50;0.50;;;25.10;69.50;;;25.55;53.90;94858.72;5070417;28;20227;-79
2022/06/27 06:53:09;;;;;;;0.40;0.40;;;25.20;69.60;;;25.63;53.75;94859.16;5071711;28;20326;-81
2022/06/27 06:55:36;;;;;;;0.30;0.30;;;25.30;69.70;;;25.69;53.76;94872.22;5039681;28;20659;-81
2022/06/27 06:58:04;;;;;;;0.50;0.50;;;25.40;69.50;;;25.76;53.59;94871.88;5056389;28;20211;-81
2022/06/27 07:00:31;;;;;;;0.30;0.30;;;25.40;69.40;;;25.78;53.54;94867.03;5071899;28;20227;-81
2022/06/27 07:02:58;;;;;;;0.30;0.30;;;25.50;69.60;;;25.89;53.83;94873.84;5056699;28;20199;-81
2022/06/27 07:05:26;;;;;;;0.30;0.30;;;25.50;69.60;;;25.92;53.74;94871.69;5040124;28;20218;-81
2022/06/27 07:07:54;;;;;;;0.50;0.50;;;25.60;69.40;;;26.01;53.32;94880.66;5055568;28;20226;-81
2022/06/27 07:10:21;;;;;;;0.32;0.32;;;25.70;69.30;;;26.08;53.68;94881.13;5066098;28;20220;-80
2022/06/27 07:12:49;;;;;;;0.40;0.40;;;25.70;69.10;;;26.15;53.39;94878.09;5046031;28;20226;-79
2022/06/27 07:15:16;;;;;;;0.30;0.30;;;25.80;69.30;;;26.21;53.45;94866.97;5035686;28;20712;-80
2022/06/27 07:17:49;;;;;;;0.30;0.30;;;25.80;69.10;;;26.31;53.61;94865.22;5038775;28;20668;-80
2022/06/27 07:20:20;;;;;;;0.40;0.40;;;25.90;69.30;;;26.40;53.16;94876.09;5048360;28;20220;-80
2022/06/27 07:22:49;;;;;;;0.30;0.30;;;26.00;69.10;;;26.48;53.15;94872.75;5048410;28;20198;-79
2022/06/27 07:25:17;;;;;;;0.40;0.40;;;26.10;69.30;;;26.58;53.08;94861.03;5014283;28;20232;-80
2022/06/27 07:27:46;;;;;;;0.40;0.40;;;26.20;69.20;;;26.67;53.10;94870.81;5066311;28;20229;-79
2022/06/27 07:30:14;;;;;;;0.20;0.20;;;26.20;68.90;;;26.76;52.96;94865.56;5051910;28;20233;-81
2022/06/27 07:32:43;;;;;;;0.30;0.30;;;26.30;68.80;;;26.84;52.63;94867.59;5048266;28;21086;-79
2022/06/27 07:35:12;;;;;;;0.30;0.30;;;26.40;68.70;;;26.91;52.54;94869.09;5047013;28;20241;-80
2022/06/27 07:37:48;;;;;;;0.40;0.40;;;26.50;68.30;;;26.99;52.54;94866.50;5027090;28;20639;-80
2022/06/27 07:40:21;;;;;;;0.30;0.30;;;26.60;68.40;;;27.06;52.52;94860.75;5044504;28;20226;-80
2022/06/27 07:42:51;;;;;;;0.30;0.30;;;26.70;68.40;;;27.15;52.48;94869.69;5048446;28;20285;-80
2022/06/27 07:45:26;;;;;;;0.40;0.40;;;26.70;68.40;;;27.23;52.85;94857.44;5031581;28;20225;-80
2022/06/27 07:47:56;;;;;;;0.30;0.30;;;26.80;68.50;;;27.31;52.25;94858.66;5050015;28;20255;-80
2022/06/27 07:50:41;;;;;;;0.30;0.30;;;26.90;68.50;;;27.39;52.32;94855.25;5030542;28;20300;-81
2022/06/27 07:53:12;;;;;;;0.30;0.30;;;27.00;68.60;;;27.49;52.48;94859.66;5017302;28;20628;-80
2022/06/27 07:55:49;;;;;;;0.35;0.35;;;27.10;68.60;;;27.56;52.13;94851.97;5032139;28;20226;-80
2022/06/27 07:58:17;;;;;;;0.30;0.30;;;27.20;68.30;;;27.66;51.75;94858.22;5045053;28;20680;-80
2022/06/27 08:00:48;;;;;;;0.30;0.30;;;27.30;68.20;;;27.74;52.02;94847.53;5061683;28;20228;-80
2022/06/27 08:03:39;;;;;;;0.30;0.30;;;27.30;68.00;;;27.83;51.79;94849.50;5080545;28;20281;-81
2022/06/27 08:06:19;;;;;;;0.30;0.30;;;27.40;67.90;;;27.90;51.46;94866.06;5029638;28;20289;-81
2022/06/27 08:08:50;;;;;;;0.30;0.30;;;27.50;67.60;;;27.98;51.17;94862.66;5044601;28;20203;-80
2022/06/27 08:11:21;;;;;;;0.30;0.30;;;27.60;67.40;;;28.06;51.24;94861.16;5054058;28;20223;-79
2022/06/27 08:13:52;;;;;;;0.30;0.30;;;27.60;67.50;;;28.14;51.66;94865.84;5060679;28;20189;-81
2022/06/27 08:16:22;;;;;;;0.32;0.32;;;27.80;67.60;;;28.21;51.01;94868.91;5051104;28;20219;-80
2022/06/27 08:18:51;;;;;;;0.30;0.30;;;27.80;67.30;;;28.33;51.31;94872.94;5042837;28;20200;-80
2022/06/27 08:21:25;;;;;;;0.35;0.35;;;27.90;67.50;;;28.38;51.54;94867.44;5062110;28;20285;-80
2022/06/27 08:23:59;;;;;;;0.47;0.47;;;28.00;67.20;;;28.53;50.79;94875.16;5061749;28;20191;-80
2022/06/27 08:26:28;;;;;;;0.30;0.30;;;28.10;67.10;;;28.61;50.85;94870.91;5042942;28;20228;-80
2022/06/27 08:28:58;;;;;;;0.30;0.30;;;28.20;67.10;;;28.69;50.25;94870.22;5034221;28;20237;-80
2022/06/27 08:31:27;;;;;;;0.40;0.40;;;28.30;66.80;;;28.76;50.48;94869.78;5035445;28;20216;-80
2022/06/27 08:33:58;;;;;;;0.30;0.30;;;28.30;66.80;;;28.85;50.37;94878.72;5043268;28;20208;-79
2022/06/27 08:36:27;;;;;;;0.30;0.30;;;28.40;67.00;;;28.95;50.62;94877.66;5061018;28;20252;-80
2022/06/27 08:39:05;;;;;;;0.32;0.32;;;28.50;66.70;;;29.03;49.99;94876.13;5060148;28;20200;-79
2022/06/27 08:41:32;;;;;;;0.40;0.40;;;28.50;66.40;;;29.10;49.72;94872.97;5059861;28;20730;-80
2022/06/27 08:44:04;;;;;;;0.30;0.30;;;28.70;66.70;;;29.14;50.39;94865.81;5058641;28;20201;-81
2022/06/27 08:46:32;;;;;;;0.30;0.30;;;28.70;67.20;;;29.23;49.67;94880.97;5041237;28;20250;-79
2022/06/27 08:49:02;;;;;;;0.30;0.30;;;28.80;66.00;;;29.30;49.46;94880.53;5046860;28;20194;-81
2022/06/27 08:51:29;;;;;;;0.40;0.40;;;28.90;66.00;;;29.36;49.63;94881.22;5059160;28;20259;-80
2022/06/27 08:53:56;;;;;;;0.30;0.30;;;28.90;66.20;;;29.43;49.58;94881.56;5053590;28;20224;-80
2022/06/27 08:56:24;;;;;;;0.30;0.30;;;29.00;66.20;;;29.50;49.93;94886.47;5032885;28;20224;-80
2022/06/27 08:58:55;;;;;;;0.30;0.30;;;29.10;66.00;;;29.55;49.19;94875.53;5033825;28;20216;-81
2022/06/27 09:01:23;;;;;;;0.30;0.30;;;29.10;65.70;;;29.62;49.08;94878.56;5039009;28;20243;-80
2022/06/27 09:04:06;;;;;;;0.30;0.30;;;29.20;65.60;;;29.68;48.93;94876.50;5046717;28;20199;-81
2022/06/27 09:06:43;;;;;;;0.40;0.40;;;29.20;65.60;;;29.76;49.47;94883.03;5070410;28;20256;-81
2022/06/27 09:09:13;;;;;;;0.30;0.30;;;29.30;65.50;;;29.80;49.02;94875.91;5069340;28;20248;-80
2022/06/27 09:11:44;;;;;;;0.50;0.50;;;29.30;65.30;;;29.88;48.69;94880.50;5032847;28;20301;-81
2022/06/27 09:14:40;;;;;;;0.30;0.30;;;29.50;65.30;;;29.93;48.65;94885.81;5034022;28;20200;-81
2022/06/27 09:17:15;;;;;;;0.40;0.40;;;29.50;65.40;;;29.96;48.50;94871.66;5051036;28;20189;-81
2022/06/27 09:19:56;;;;;;;0.30;0.30;;;29.60;64.60;;;30.04;47.77;94886.28;5048313;28;20297;-79
2022/06/27 09:22:28;;;;;;;0.30;0.30;;;29.60;64.00;;;30.09;47.76;94879.94;5056395;28;20227;-80
2022/06/27 09:25:06;;;;;;;0.30;0.30;;;29.60;64.50;;;30.15;47.94;94884.88;5053536;28;20319;-80
2022/06/27 09:27:52;;;;;;;0.30;0.30;;;29.70;64.40;;;30.21;48.06;94882.78;5057401;28;20207;-81
2022/06/27 09:30:22;;;;;;;0.20;0.20;;;29.80;64.40;;;30.28;48.41;94882.34;5051308;28;20683;-81
2022/06/27 09:32:58;;;;;;;0.30;0.30;;;29.80;64.50;;;30.33;48.07;94874.84;5063490;28;20199;-81
2022/06/27 09:35:31;;;;;;;0.30;0.30;;;29.90;64.30;;;30.40;47.30;94877.06;5035692;28;20221;-81
2022/06/27 09:38:02;;;;;;;0.30;0.30;;;29.90;63.90;;;30.44;47.39;94878.00;5057394;28;20229;-81
2022/06/27 09:40:33;;;;;;;0.30;0.30;;;30.00;63.60;;;30.52;47.19;94878.34;5039231;28;20586;-80
2022/06/27 09:43:06;;;;;;;0.30;0.30;;;30.10;63.80;;;30.61;47.62;94881.84;5072931;28;20668;-80
2022/06/27 09:45:37;;;;;;;0.30;0.30;;;30.10;64.10;;;30.66;46.56;94874.38;5073249;28;20227;-81
2022/06/27 09:48:16;;;;;;;0.30;0.30;;;30.20;63.60;;;30.75;46.91;94870.81;5073750;28;20295;-81
2022/06/27 09:50:44;;;;;;;0.30;0.30;;;30.30;63.20;;;30.79;46.41;94872.56;5056962;28;20656;-80
2022/06/27 09:53:12;;;;;;;0.30;0.30;;;30.30;63.10;;;30.88;46.46;94875.25;5067471;28;20655;-81
2022/06/27 09:55:42;;;;;;;0.40;0.40;;;30.40;63.40;;;30.95;46.55;94869.34;5037131;28;20227;-80
2022/06/27 09:58:11;;;;;;;0.30;0.30;;;30.50;63.10;;;31.00;45.88;94866.47;5055490;28;20278;-80
2022/06/27 10:00:41;;;;;;;0.30;0.30;;;30.60;63.10;;;31.07;46.46;94861.34;5036741;28;20218;-80
2022/06/27 10:03:08;;;;;;;0.30;0.30;;;30.60;62.70;;;31.16;45.76;94868.69;5054029;28;20245;-81
2022/06/27 10:05:43;;;;;;;0.30;0.30;;;30.70;62.70;;;31.21;45.27;94863.06;5046337;28;20211;-80
2022/06/27 10:08:12;;;;;;;0.30;0.30;;;30.70;62.30;;;31.26;45.09;94863.69;5025048;28;20210;-81
2022/06/27 10:11:15;;;;;;;0.30;0.30;;;30.80;62.30;;;31.29;44.85;94864.97;5054093;28;20329;-81
2022/06/27 10:13:43;;;;;;;0.30;0.30;;;30.90;62.30;;;31.35;44.73;94863.66;5034196;28;20198;-81
2022/06/27 10:16:15;;;;;;;0.30;0.30;;;30.90;62.00;;;31.39;44.89;94864.59;5049727;28;20309;-81
2022/06/27 10:18:57;;;;;;;0.40;0.40;;;30.90;62.10;;;31.49;45.58;94871.53;5073193;28;20607;-81
2022/06/27 10:21:41;;;;;;;0.30;0.30;;;31.00;62.10;;;31.53;45.31;94858.94;5070029;28;20297;-81
2022/06/27 10:24:26;;;;;;;0.32;0.32;;;31.10;62.40;;;31.64;45.12;94864.78;5087208;28;20562;-80
2022/06/27 10:26:57;;;;;;;0.30;0.30;;;31.20;62.20;;;31.72;45.76;94871.31;5070215;28;20231;-81
2022/06/27 10:29:29;;;;;;;0.28;0.28;;;31.20;62.20;;;31.80;45.51;94858.81;5057825;28;20187;-80
2022/06/27 10:31:57;;;;;;;0.40;0.40;;;31.30;61.80;;;31.84;45.19;94855.09;5064114;28;20210;-81
2022/06/27 10:34:40;;;;;;;0.30;0.30;;;31.40;62.10;;;31.90;45.11;94853.78;5057169;28;20191;-80
2022/06/27 10:37:24;;;;;;;0.30;0.30;;;31.40;61.90;;;31.97;44.91;94858.69;5053194;28;20206;-80
2022/06/27 10:40:13;;;;;;;0.20;0.20;;;31.50;61.50;;;32.00;45.05;94858.03;5055765;28;20308;-80